sensor_id;sensor_type;location;lat;lon;timestamp;P1;durP1;ratioP1;P2;durP2;ratioP2
35667;SDS011;22158;59.280;17.806;2023-07-08T00:01:12;5.35;;;1.95;;
35667;SDS011;22158;59.280;17.806;2023-07-08T00:03:39;4.53;;;2.10;;
35667;SDS011;22158;59.280;17.806;2023-07-08T00:06:07;7.68;;;1.92;;
35667;SDS011;22158;59.280;17.806;2023-07-08T00:08:37;4.45;;;2.17;;
35667;SDS011;22158;59.280;17.806;2023-07-08T00:11:07;5.90;;;2.58;;
35667;SDS011;22158;59.280;17.806;2023-07-08T00:13:36;3.05;;;2.15;;
35667;SDS011;22158;59.280;17.806;2023-07-08T00:16:01;4.38;;;2.25;;
35667;SDS011;22158;59.280;17.806;2023-07-08T00:18:27;3.05;;;1.90;;
35667;SDS011;22158;59.280;17.806;2023-07-08T00:20:52;4.35;;;2.65;;
35667;SDS011;22158;59.280;17.806;2023-07-08T00:23:18;3.38;;;2.05;;
35667;SDS011;22158;59.280;17.806;2023-07-08T00:25:47;4.32;;;2.22;;
35667;SDS011;22158;59.280;17.806;2023-07-08T00:28:17;4.57;;;1.92;;
35667;SDS011;22158;59.280;17.806;2023-07-08T00:30:47;2.80;;;2.08;;
35667;SDS011;22158;59.280;17.806;2023-07-08T00:33:13;3.97;;;2.13;;
35667;SDS011;22158;59.280;17.806;2023-07-08T00:35:39;3.92;;;2.30;;
35667;SDS011;22158;59.280;17.806;2023-07-08T00:38:25;3.60;;;1.98;;
35667;SDS011;22158;59.280;17.806;2023-07-08T00:43:30;3.97;;;2.38;;
35667;SDS011;22158;59.280;17.806;2023-07-08T00:51:25;8.15;;;2.53;;
35667;SDS011;22158;59.280;17.806;2023-07-08T00:53:51;6.15;;;2.47;;
35667;SDS011;22158;59.280;17.806;2023-07-08T00:56:24;3.22;;;2.30;;
35667;SDS011;22158;59.280;17.806;2023-07-08T01:01:28;4.65;;;2.20;;
35667;SDS011;22158;59.280;17.806;2023-07-08T01:04:43;7.88;;;2.35;;
35667;SDS011;22158;59.280;17.806;2023-07-08T01:06:50;6.15;;;2.40;;
35667;SDS011;22158;59.280;17.806;2023-07-08T01:09:23;3.72;;;2.53;;
35667;SDS011;22158;59.280;17.806;2023-07-08T01:11:54;4.07;;;2.90;;
35667;SDS011;22158;59.280;17.806;2023-07-08T01:14:23;5.60;;;2.53;;
35667;SDS011;22158;59.280;17.806;2023-07-08T01:16:51;4.07;;;2.33;;
35667;SDS011;22158;59.280;17.806;2023-07-08T01:19:18;3.05;;;2.33;;
35667;SDS011;22158;59.280;17.806;2023-07-08T01:24:22;3.13;;;1.95;;
35667;SDS011;22158;59.280;17.806;2023-07-08T01:26:47;3.72;;;2.20;;
35667;SDS011;22158;59.280;17.806;2023-07-08T01:29:13;6.53;;;2.20;;
35667;SDS011;22158;59.280;17.806;2023-07-08T01:31:39;3.00;;;2.28;;
35667;SDS011;22158;59.280;17.806;2023-07-08T01:34:05;7.63;;;2.35;;
35667;SDS011;22158;59.280;17.806;2023-07-08T01:36:43;6.45;;;3.33;;
35667;SDS011;22158;59.280;17.806;2023-07-08T01:39:13;3.28;;;2.40;;
35667;SDS011;22158;59.280;17.806;2023-07-08T01:41:42;5.07;;;2.30;;
35667;SDS011;22158;59.280;17.806;2023-07-08T01:46:53;8.57;;;2.30;;
35667;SDS011;22158;59.280;17.806;2023-07-08T01:49:22;3.38;;;2.28;;
35667;SDS011;22158;59.280;17.806;2023-07-08T01:51:49;3.95;;;2.53;;
35667;SDS011;22158;59.280;17.806;2023-07-08T01:54:15;3.67;;;2.78;;
35667;SDS011;22158;59.280;17.806;2023-07-08T01:56:40;5.13;;;2.90;;
35667;SDS011;22158;59.280;17.806;2023-07-08T01:59:06;3.55;;;2.45;;
35667;SDS011;22158;59.280;17.806;2023-07-08T02:01:31;4.82;;;2.50;;
35667;SDS011;22158;59.280;17.806;2023-07-08T02:03:57;5.75;;;2.50;;
35667;SDS011;22158;59.280;17.806;2023-07-08T02:06:23;3.13;;;2.53;;
35667;SDS011;22158;59.280;17.806;2023-07-08T02:08:48;8.00;;;2.80;;
35667;SDS011;22158;59.280;17.806;2023-07-08T02:11:16;4.20;;;2.65;;
35667;SDS011;22158;59.280;17.806;2023-07-08T02:13:42;6.00;;;2.83;;
35667;SDS011;22158;59.280;17.806;2023-07-08T02:16:07;4.28;;;2.60;;
35667;SDS011;22158;59.280;17.806;2023-07-08T02:18:33;5.45;;;2.55;;
35667;SDS011;22158;59.280;17.806;2023-07-08T02:20:58;2.97;;;2.20;;
35667;SDS011;22158;59.280;17.806;2023-07-08T02:23:24;3.97;;;2.42;;
35667;SDS011;22158;59.280;17.806;2023-07-08T02:25:51;5.22;;;2.83;;
35667;SDS011;22158;59.280;17.806;2023-07-08T02:28:20;6.60;;;3.20;;
35667;SDS011;22158;59.280;17.806;2023-07-08T02:30:46;4.90;;;3.10;;
35667;SDS011;22158;59.280;17.806;2023-07-08T02:33:12;4.00;;;2.47;;
35667;SDS011;22158;59.280;17.806;2023-07-08T02:35:39;8.57;;;3.30;;
35667;SDS011;22158;59.280;17.806;2023-07-08T02:38:05;8.57;;;3.15;;
35667;SDS011;22158;59.280;17.806;2023-07-08T02:40:30;7.88;;;2.67;;
35667;SDS011;22158;59.280;17.806;2023-07-08T02:42:56;6.68;;;3.10;;
35667;SDS011;22158;59.280;17.806;2023-07-08T02:45:22;5.82;;;3.38;;
35667;SDS011;22158;59.280;17.806;2023-07-08T02:47:47;3.50;;;3.00;;
35667;SDS011;22158;59.280;17.806;2023-07-08T02:50:13;5.95;;;3.45;;
35667;SDS011;22158;59.280;17.806;2023-07-08T02:52:38;3.67;;;2.83;;
35667;SDS011;22158;59.280;17.806;2023-07-08T02:55:04;4.97;;;3.58;;
35667;SDS011;22158;59.280;17.806;2023-07-08T02:57:31;5.30;;;3.00;;
35667;SDS011;22158;59.280;17.806;2023-07-08T02:59:56;5.45;;;3.13;;
35667;SDS011;22158;59.280;17.806;2023-07-08T03:02:22;7.22;;;3.45;;
35667;SDS011;22158;59.280;17.806;2023-07-08T03:04:48;7.35;;;3.35;;
35667;SDS011;22158;59.280;17.806;2023-07-08T03:07:15;3.47;;;2.65;;
35667;SDS011;22158;59.280;17.806;2023-07-08T03:09:41;4.30;;;3.53;;
35667;SDS011;22158;59.280;17.806;2023-07-08T03:12:07;5.93;;;2.97;;
35667;SDS011;22158;59.280;17.806;2023-07-08T03:14:34;9.63;;;3.63;;
35667;SDS011;22158;59.280;17.806;2023-07-08T03:17:00;6.32;;;3.28;;
35667;SDS011;22158;59.280;17.806;2023-07-08T03:19:26;7.93;;;3.47;;
35667;SDS011;22158;59.280;17.806;2023-07-08T03:21:51;4.80;;;3.47;;
35667;SDS011;22158;59.280;17.806;2023-07-08T03:24:17;4.75;;;2.80;;
35667;SDS011;22158;59.280;17.806;2023-07-08T03:26:43;7.53;;;3.78;;
35667;SDS011;22158;59.280;17.806;2023-07-08T03:29:11;4.88;;;2.97;;
35667;SDS011;22158;59.280;17.806;2023-07-08T03:31:40;6.97;;;4.43;;
35667;SDS011;22158;59.280;17.806;2023-07-08T03:34:06;9.35;;;3.60;;
35667;SDS011;22158;59.280;17.806;2023-07-08T03:39:09;11.20;;;3.70;;
35667;SDS011;22158;59.280;17.806;2023-07-08T03:41:34;9.75;;;3.60;;
35667;SDS011;22158;59.280;17.806;2023-07-08T03:44:00;5.70;;;3.63;;
35667;SDS011;22158;59.280;17.806;2023-07-08T03:46:25;6.63;;;3.10;;
35667;SDS011;22158;59.280;17.806;2023-07-08T03:48:51;5.50;;;3.20;;
35667;SDS011;22158;59.280;17.806;2023-07-08T03:51:19;7.30;;;3.22;;
35667;SDS011;22158;59.280;17.806;2023-07-08T03:53:53;5.82;;;3.20;;
35667;SDS011;22158;59.280;17.806;2023-07-08T03:56:19;6.65;;;4.28;;
35667;SDS011;22158;59.280;17.806;2023-07-08T03:58:45;5.45;;;3.65;;
35667;SDS011;22158;59.280;17.806;2023-07-08T04:01:14;6.28;;;3.78;;
35667;SDS011;22158;59.280;17.806;2023-07-08T04:03:42;5.15;;;3.67;;
35667;SDS011;22158;59.280;17.806;2023-07-08T04:06:08;7.30;;;3.78;;
35667;SDS011;22158;59.280;17.806;2023-07-08T04:08:33;5.30;;;3.22;;
35667;SDS011;22158;59.280;17.806;2023-07-08T04:10:59;5.88;;;3.60;;
35667;SDS011;22158;59.280;17.806;2023-07-08T04:13:24;6.15;;;3.30;;
35667;SDS011;22158;59.280;17.806;2023-07-08T04:15:51;5.88;;;3.22;;
35667;SDS011;22158;59.280;17.806;2023-07-08T04:18:20;4.63;;;2.87;;
35667;SDS011;22158;59.280;17.806;2023-07-08T04:20:46;6.68;;;3.55;;
35667;SDS011;22158;59.280;17.806;2023-07-08T04:23:17;5.25;;;3.38;;
35667;SDS011;22158;59.280;17.806;2023-07-08T04:25:43;4.90;;;3.60;;
35667;SDS011;22158;59.280;17.806;2023-07-08T04:28:09;5.15;;;3.60;;
35667;SDS011;22158;59.280;17.806;2023-07-08T04:30:35;4.78;;;3.55;;
35667;SDS011;22158;59.280;17.806;2023-07-08T04:33:06;8.45;;;3.53;;
35667;SDS011;22158;59.280;17.806;2023-07-08T04:35:33;5.82;;;3.35;;
35667;SDS011;22158;59.280;17.806;2023-07-08T04:38:00;4.75;;;3.53;;
35667;SDS011;22158;59.280;17.806;2023-07-08T04:40:25;6.00;;;3.72;;
35667;SDS011;22158;59.280;17.806;2023-07-08T04:42:51;9.00;;;3.83;;
35667;SDS011;22158;59.280;17.806;2023-07-08T04:45:17;18.60;;;4.70;;
35667;SDS011;22158;59.280;17.806;2023-07-08T04:47:43;4.43;;;3.45;;
35667;SDS011;22158;59.280;17.806;2023-07-08T04:50:12;5.18;;;3.90;;
35667;SDS011;22158;59.280;17.806;2023-07-08T04:52:38;11.38;;;3.70;;
35667;SDS011;22158;59.280;17.806;2023-07-08T04:55:03;7.18;;;4.28;;
35667;SDS011;22158;59.280;17.806;2023-07-08T04:57:29;6.85;;;4.43;;
35667;SDS011;22158;59.280;17.806;2023-07-08T04:59:55;4.97;;;3.90;;
35667;SDS011;22158;59.280;17.806;2023-07-08T05:02:20;11.63;;;4.80;;
35667;SDS011;22158;59.280;17.806;2023-07-08T05:04:46;4.45;;;3.65;;
35667;SDS011;22158;59.280;17.806;2023-07-08T05:07:11;4.78;;;3.70;;
35667;SDS011;22158;59.280;17.806;2023-07-08T05:09:37;6.03;;;4.00;;
35667;SDS011;22158;59.280;17.806;2023-07-08T05:12:03;6.22;;;3.78;;
35667;SDS011;22158;59.280;17.806;2023-07-08T05:14:29;6.00;;;3.83;;
35667;SDS011;22158;59.280;17.806;2023-07-08T05:16:55;5.32;;;3.53;;
35667;SDS011;22158;59.280;17.806;2023-07-08T05:19:22;5.93;;;3.90;;
35667;SDS011;22158;59.280;17.806;2023-07-08T05:21:48;4.40;;;3.70;;
35667;SDS011;22158;59.280;17.806;2023-07-08T05:24:14;9.60;;;3.40;;
35667;SDS011;22158;59.280;17.806;2023-07-08T05:26:39;6.55;;;3.67;;
35667;SDS011;22158;59.280;17.806;2023-07-08T05:29:05;6.25;;;3.90;;
35667;SDS011;22158;59.280;17.806;2023-07-08T05:31:30;5.60;;;3.80;;
35667;SDS011;22158;59.280;17.806;2023-07-08T05:33:56;7.43;;;4.07;;
35667;SDS011;22158;59.280;17.806;2023-07-08T05:36:21;5.13;;;3.80;;
35667;SDS011;22158;59.280;17.806;2023-07-08T05:38:47;4.65;;;3.97;;
35667;SDS011;22158;59.280;17.806;2023-07-08T05:41:13;6.60;;;4.82;;
35667;SDS011;22158;59.280;17.806;2023-07-08T05:43:39;8.32;;;3.60;;
35667;SDS011;22158;59.280;17.806;2023-07-08T05:46:04;6.75;;;4.57;;
35667;SDS011;22158;59.280;17.806;2023-07-08T05:48:30;8.70;;;3.67;;
35667;SDS011;22158;59.280;17.806;2023-07-08T05:50:55;6.10;;;3.95;;
35667;SDS011;22158;59.280;17.806;2023-07-08T05:53:21;7.30;;;4.10;;
35667;SDS011;22158;59.280;17.806;2023-07-08T05:55:47;7.18;;;3.88;;
35667;SDS011;22158;59.280;17.806;2023-07-08T05:58:13;7.22;;;3.95;;
35667;SDS011;22158;59.280;17.806;2023-07-08T06:00:42;5.65;;;4.18;;
35667;SDS011;22158;59.280;17.806;2023-07-08T06:03:08;5.07;;;3.40;;
35667;SDS011;22158;59.280;17.806;2023-07-08T06:05:34;5.82;;;4.47;;
35667;SDS011;22158;59.280;17.806;2023-07-08T06:08:01;8.20;;;3.83;;
35667;SDS011;22158;59.280;17.806;2023-07-08T06:10:26;6.45;;;3.53;;
35667;SDS011;22158;59.280;17.806;2023-07-08T06:12:52;5.35;;;3.83;;
35667;SDS011;22158;59.280;17.806;2023-07-08T06:15:17;7.65;;;4.78;;
35667;SDS011;22158;59.280;17.806;2023-07-08T06:17:43;5.32;;;3.60;;
35667;SDS011;22158;59.280;17.806;2023-07-08T06:20:09;6.10;;;3.80;;
35667;SDS011;22158;59.280;17.806;2023-07-08T06:22:34;9.25;;;3.72;;
35667;SDS011;22158;59.280;17.806;2023-07-08T06:25:00;6.85;;;4.13;;
35667;SDS011;22158;59.280;17.806;2023-07-08T06:27:25;4.22;;;3.38;;
35667;SDS011;22158;59.280;17.806;2023-07-08T06:29:51;3.75;;;3.22;;
35667;SDS011;22158;59.280;17.806;2023-07-08T06:32:17;4.90;;;3.13;;
35667;SDS011;22158;59.280;17.806;2023-07-08T06:34:43;9.60;;;3.85;;
35667;SDS011;22158;59.280;17.806;2023-07-08T06:37:09;4.68;;;3.83;;
35667;SDS011;22158;59.280;17.806;2023-07-08T06:39:34;8.48;;;3.50;;
35667;SDS011;22158;59.280;17.806;2023-07-08T06:42:00;7.47;;;4.03;;
35667;SDS011;22158;59.280;17.806;2023-07-08T06:44:25;6.78;;;3.65;;
35667;SDS011;22158;59.280;17.806;2023-07-08T06:46:51;4.88;;;3.40;;
35667;SDS011;22158;59.280;17.806;2023-07-08T06:49:17;6.15;;;3.22;;
35667;SDS011;22158;59.280;17.806;2023-07-08T06:51:42;4.65;;;3.22;;
35667;SDS011;22158;59.280;17.806;2023-07-08T06:54:10;4.80;;;3.60;;
35667;SDS011;22158;59.280;17.806;2023-07-08T06:56:37;5.95;;;4.38;;
35667;SDS011;22158;59.280;17.806;2023-07-08T06:59:04;6.13;;;3.65;;
35667;SDS011;22158;59.280;17.806;2023-07-08T07:01:29;6.13;;;3.63;;
35667;SDS011;22158;59.280;17.806;2023-07-08T07:03:55;6.07;;;3.67;;
35667;SDS011;22158;59.280;17.806;2023-07-08T07:06:21;3.83;;;3.45;;
35667;SDS011;22158;59.280;17.806;2023-07-08T07:08:46;6.18;;;3.92;;
35667;SDS011;22158;59.280;17.806;2023-07-08T07:11:12;4.82;;;3.25;;
35667;SDS011;22158;59.280;17.806;2023-07-08T07:13:37;5.80;;;3.83;;
35667;SDS011;22158;59.280;17.806;2023-07-08T07:16:03;4.35;;;3.67;;
35667;SDS011;22158;59.280;17.806;2023-07-08T07:18:29;5.70;;;3.53;;
35667;SDS011;22158;59.280;17.806;2023-07-08T07:20:54;5.85;;;3.38;;
35667;SDS011;22158;59.280;17.806;2023-07-08T07:23:20;4.18;;;3.63;;
35667;SDS011;22158;59.280;17.806;2023-07-08T07:25:46;6.22;;;3.70;;
35667;SDS011;22158;59.280;17.806;2023-07-08T07:28:12;7.45;;;3.92;;
35667;SDS011;22158;59.280;17.806;2023-07-08T07:30:41;4.57;;;3.33;;
35667;SDS011;22158;59.280;17.806;2023-07-08T07:33:10;6.00;;;3.35;;
35667;SDS011;22158;59.280;17.806;2023-07-08T07:35:36;5.70;;;4.10;;
35667;SDS011;22158;59.280;17.806;2023-07-08T07:38:06;4.07;;;3.08;;
35667;SDS011;22158;59.280;17.806;2023-07-08T07:40:31;4.85;;;3.65;;
35667;SDS011;22158;59.280;17.806;2023-07-08T07:42:57;6.22;;;3.70;;
35667;SDS011;22158;59.280;17.806;2023-07-08T07:45:22;4.07;;;3.50;;
35667;SDS011;22158;59.280;17.806;2023-07-08T07:47:48;6.68;;;3.90;;
35667;SDS011;22158;59.280;17.806;2023-07-08T07:50:14;6.78;;;3.80;;
35667;SDS011;22158;59.280;17.806;2023-07-08T07:52:40;4.53;;;3.70;;
35667;SDS011;22158;59.280;17.806;2023-07-08T07:55:07;8.02;;;3.75;;
35667;SDS011;22158;59.280;17.806;2023-07-08T07:57:33;4.13;;;3.50;;
35667;SDS011;22158;59.280;17.806;2023-07-08T07:59:58;7.20;;;3.63;;
35667;SDS011;22158;59.280;17.806;2023-07-08T08:02:24;4.00;;;3.20;;
35667;SDS011;22158;59.280;17.806;2023-07-08T08:04:50;4.90;;;3.33;;
35667;SDS011;22158;59.280;17.806;2023-07-08T08:07:16;8.07;;;3.58;;
35667;SDS011;22158;59.280;17.806;2023-07-08T08:09:41;7.05;;;3.63;;
35667;SDS011;22158;59.280;17.806;2023-07-08T08:12:07;5.07;;;3.50;;
35667;SDS011;22158;59.280;17.806;2023-07-08T08:14:35;6.13;;;3.83;;
35667;SDS011;22158;59.280;17.806;2023-07-08T08:17:01;5.15;;;3.45;;
35667;SDS011;22158;59.280;17.806;2023-07-08T08:19:27;4.03;;;3.22;;
35667;SDS011;22158;59.280;17.806;2023-07-08T08:21:53;6.50;;;3.88;;
35667;SDS011;22158;59.280;17.806;2023-07-08T08:24:18;10.23;;;4.50;;
35667;SDS011;22158;59.280;17.806;2023-07-08T08:26:44;5.32;;;3.80;;
35667;SDS011;22158;59.280;17.806;2023-07-08T08:29:10;4.40;;;2.97;;
35667;SDS011;22158;59.280;17.806;2023-07-08T08:31:35;4.43;;;3.28;;
35667;SDS011;22158;59.280;17.806;2023-07-08T08:34:01;4.22;;;3.25;;
35667;SDS011;22158;59.280;17.806;2023-07-08T08:36:26;6.53;;;4.20;;
35667;SDS011;22158;59.280;17.806;2023-07-08T08:38:52;5.38;;;3.78;;
35667;SDS011;22158;59.280;17.806;2023-07-08T08:41:25;5.00;;;3.97;;
35667;SDS011;22158;59.280;17.806;2023-07-08T08:43:56;6.10;;;3.72;;
35667;SDS011;22158;59.280;17.806;2023-07-08T08:51:45;4.82;;;3.45;;
35667;SDS011;22158;59.280;17.806;2023-07-08T08:54:12;7.13;;;3.50;;
35667;SDS011;22158;59.280;17.806;2023-07-08T08:59:33;3.95;;;3.45;;
35667;SDS011;22158;59.280;17.806;2023-07-08T09:05:28;4.15;;;3.30;;
35667;SDS011;22158;59.280;17.806;2023-07-08T09:12:54;6.45;;;3.72;;
35667;SDS011;22158;59.280;17.806;2023-07-08T09:15:22;4.50;;;3.58;;
35667;SDS011;22158;59.280;17.806;2023-07-08T09:17:50;5.22;;;3.50;;
35667;SDS011;22158;59.280;17.806;2023-07-08T09:20:28;4.63;;;3.03;;
35667;SDS011;22158;59.280;17.806;2023-07-08T09:23:11;5.00;;;3.83;;
35667;SDS011;22158;59.280;17.806;2023-07-08T09:25:47;6.47;;;3.17;;
35667;SDS011;22158;59.280;17.806;2023-07-08T09:28:17;4.40;;;3.60;;
35667;SDS011;22158;59.280;17.806;2023-07-08T09:30:46;3.92;;;3.30;;
35667;SDS011;22158;59.280;17.806;2023-07-08T09:33:16;4.32;;;3.40;;
35667;SDS011;22158;59.280;17.806;2023-07-08T09:35:50;8.25;;;3.55;;
35667;SDS011;22158;59.280;17.806;2023-07-08T09:38:17;6.03;;;3.63;;
35667;SDS011;22158;59.280;17.806;2023-07-08T09:40:52;4.38;;;3.63;;
35667;SDS011;22158;59.280;17.806;2023-07-08T09:43:25;4.53;;;3.70;;
35667;SDS011;22158;59.280;17.806;2023-07-08T09:48:28;6.65;;;3.40;;
35667;SDS011;22158;59.280;17.806;2023-07-08T09:51:01;4.40;;;3.45;;
35667;SDS011;22158;59.280;17.806;2023-07-08T09:53:27;7.18;;;3.90;;
35667;SDS011;22158;59.280;17.806;2023-07-08T09:55:53;4.00;;;3.42;;
35667;SDS011;22158;59.280;17.806;2023-07-08T09:58:29;5.95;;;3.70;;
35667;SDS011;22158;59.280;17.806;2023-07-08T10:00:59;6.78;;;3.53;;
35667;SDS011;22158;59.280;17.806;2023-07-08T10:03:31;4.72;;;3.05;;
35667;SDS011;22158;59.280;17.806;2023-07-08T10:06:03;6.30;;;3.58;;
35667;SDS011;22158;59.280;17.806;2023-07-08T10:08:42;3.60;;;3.08;;
35667;SDS011;22158;59.280;17.806;2023-07-08T10:13:56;4.72;;;3.40;;
35667;SDS011;22158;59.280;17.806;2023-07-08T10:16:31;4.32;;;3.38;;
35667;SDS011;22158;59.280;17.806;2023-07-08T10:18:58;4.47;;;3.90;;
35667;SDS011;22158;59.280;17.806;2023-07-08T10:24:30;5.78;;;3.42;;
35667;SDS011;22158;59.280;17.806;2023-07-08T10:27:15;4.22;;;3.45;;
35667;SDS011;22158;59.280;17.806;2023-07-08T10:29:58;6.75;;;3.88;;
35667;SDS011;22158;59.280;17.806;2023-07-08T10:32:53;4.40;;;3.33;;
35667;SDS011;22158;59.280;17.806;2023-07-08T10:35:30;5.97;;;3.63;;
35667;SDS011;22158;59.280;17.806;2023-07-08T10:40:58;6.60;;;3.35;;
35667;SDS011;22158;59.280;17.806;2023-07-08T10:46:16;5.50;;;3.85;;
35667;SDS011;22158;59.280;17.806;2023-07-08T11:04:46;3.85;;;3.33;;
35667;SDS011;22158;59.280;17.806;2023-07-08T11:09:57;4.00;;;3.30;;
35667;SDS011;22158;59.280;17.806;2023-07-08T11:12:29;5.32;;;3.17;;
35667;SDS011;22158;59.280;17.806;2023-07-08T11:15:41;3.80;;;2.95;;
35667;SDS011;22158;59.280;17.806;2023-07-08T11:18:17;6.00;;;3.90;;
35667;SDS011;22158;59.280;17.806;2023-07-08T11:20:51;3.90;;;3.20;;
35667;SDS011;22158;59.280;17.806;2023-07-08T11:23:30;4.82;;;3.35;;
35667;SDS011;22158;59.280;17.806;2023-07-08T11:26:09;6.68;;;3.15;;
35667;SDS011;22158;59.280;17.806;2023-07-08T11:28:46;5.30;;;3.28;;
35667;SDS011;22158;59.280;17.806;2023-07-08T11:31:14;5.13;;;2.58;;
35667;SDS011;22158;59.280;17.806;2023-07-08T11:33:40;5.00;;;3.08;;
35667;SDS011;22158;59.280;17.806;2023-07-08T11:36:07;5.32;;;3.47;;
35667;SDS011;22158;59.280;17.806;2023-07-08T11:38:35;4.68;;;3.22;;
35667;SDS011;22158;59.280;17.806;2023-07-08T11:41:02;4.32;;;3.30;;
35667;SDS011;22158;59.280;17.806;2023-07-08T11:43:41;3.90;;;2.95;;
35667;SDS011;22158;59.280;17.806;2023-07-08T11:46:14;5.03;;;3.05;;
35667;SDS011;22158;59.280;17.806;2023-07-08T11:48:46;4.60;;;3.17;;
35667;SDS011;22158;59.280;17.806;2023-07-08T11:51:17;5.80;;;2.80;;
35667;SDS011;22158;59.280;17.806;2023-07-08T11:53:49;3.97;;;2.90;;
35667;SDS011;22158;59.280;17.806;2023-07-08T11:56:24;4.82;;;2.95;;
35667;SDS011;22158;59.280;17.806;2023-07-08T11:58:52;5.25;;;3.58;;
35667;SDS011;22158;59.280;17.806;2023-07-08T12:01:27;5.25;;;3.00;;
35667;SDS011;22158;59.280;17.806;2023-07-08T12:04:01;5.30;;;3.05;;
35667;SDS011;22158;59.280;17.806;2023-07-08T12:06:43;3.97;;;3.00;;
35667;SDS011;22158;59.280;17.806;2023-07-08T12:09:21;4.82;;;3.20;;
35667;SDS011;22158;59.280;17.806;2023-07-08T12:11:52;4.65;;;2.42;;
35667;SDS011;22158;59.280;17.806;2023-07-08T12:14:24;4.18;;;3.22;;
35667;SDS011;22158;59.280;17.806;2023-07-08T12:16:52;4.40;;;2.70;;
35667;SDS011;22158;59.280;17.806;2023-07-08T12:19:18;4.25;;;3.00;;
35667;SDS011;22158;59.280;17.806;2023-07-08T12:21:46;4.53;;;3.20;;
35667;SDS011;22158;59.280;17.806;2023-07-08T12:24:13;4.07;;;2.83;;
35667;SDS011;22158;59.280;17.806;2023-07-08T12:26:40;3.03;;;2.72;;
35667;SDS011;22158;59.280;17.806;2023-07-08T12:29:07;5.25;;;3.17;;
35667;SDS011;22158;59.280;17.806;2023-07-08T12:31:38;4.78;;;3.17;;
35667;SDS011;22158;59.280;17.806;2023-07-08T12:34:07;3.78;;;2.80;;
35667;SDS011;22158;59.280;17.806;2023-07-08T12:36:37;4.22;;;3.22;;
35667;SDS011;22158;59.280;17.806;2023-07-08T12:39:03;5.35;;;3.05;;
35667;SDS011;22158;59.280;17.806;2023-07-08T12:41:33;2.80;;;2.50;;
35667;SDS011;22158;59.280;17.806;2023-07-08T12:44:00;4.05;;;3.00;;
35667;SDS011;22158;59.280;17.806;2023-07-08T12:46:26;5.50;;;3.50;;
35667;SDS011;22158;59.280;17.806;2023-07-08T12:48:53;5.07;;;2.90;;
35667;SDS011;22158;59.280;17.806;2023-07-08T12:51:19;3.38;;;3.03;;
35667;SDS011;22158;59.280;17.806;2023-07-08T12:53:47;4.85;;;3.28;;
35667;SDS011;22158;59.280;17.806;2023-07-08T12:56:13;5.13;;;3.08;;
35667;SDS011;22158;59.280;17.806;2023-07-08T12:58:41;5.45;;;2.83;;
35667;SDS011;22158;59.280;17.806;2023-07-08T13:01:10;3.45;;;2.65;;
35667;SDS011;22158;59.280;17.806;2023-07-08T13:03:42;3.58;;;3.13;;
35667;SDS011;22158;59.280;17.806;2023-07-08T13:06:11;4.03;;;3.03;;
35667;SDS011;22158;59.280;17.806;2023-07-08T13:08:40;2.70;;;2.40;;
35667;SDS011;22158;59.280;17.806;2023-07-08T13:11:05;2.97;;;2.28;;
35667;SDS011;22158;59.280;17.806;2023-07-08T13:13:34;3.80;;;2.95;;
35667;SDS011;22158;59.280;17.806;2023-07-08T13:16:01;4.53;;;2.88;;
35667;SDS011;22158;59.280;17.806;2023-07-08T13:18:35;4.13;;;2.65;;
35667;SDS011;22158;59.280;17.806;2023-07-08T13:21:04;3.42;;;2.70;;
35667;SDS011;22158;59.280;17.806;2023-07-08T13:23:32;7.32;;;2.95;;
35667;SDS011;22158;59.280;17.806;2023-07-08T13:25:59;3.97;;;2.90;;
35667;SDS011;22158;59.280;17.806;2023-07-08T13:28:26;3.53;;;2.67;;
35667;SDS011;22158;59.280;17.806;2023-07-08T13:30:55;3.65;;;2.38;;
35667;SDS011;22158;59.280;17.806;2023-07-08T13:33:28;4.57;;;2.78;;
35667;SDS011;22158;59.280;17.806;2023-07-08T13:35:55;7.28;;;2.88;;
35667;SDS011;22158;59.280;17.806;2023-07-08T13:38:22;3.50;;;2.65;;
35667;SDS011;22158;59.280;17.806;2023-07-08T13:40:56;3.20;;;2.47;;
35667;SDS011;22158;59.280;17.806;2023-07-08T13:43:30;3.88;;;2.38;;
35667;SDS011;22158;59.280;17.806;2023-07-08T13:45:57;5.85;;;3.30;;
35667;SDS011;22158;59.280;17.806;2023-07-08T13:48:28;9.27;;;2.78;;
35667;SDS011;22158;59.280;17.806;2023-07-08T13:56:51;4.07;;;3.38;;
35667;SDS011;22158;59.280;17.806;2023-07-08T14:01:28;5.05;;;2.88;;
35667;SDS011;22158;59.280;17.806;2023-07-08T14:03:56;5.65;;;2.90;;
35667;SDS011;22158;59.280;17.806;2023-07-08T14:06:27;4.88;;;2.83;;
35667;SDS011;22158;59.280;17.806;2023-07-08T14:08:56;6.55;;;2.80;;
35667;SDS011;22158;59.280;17.806;2023-07-08T14:11:24;3.60;;;2.55;;
35667;SDS011;22158;59.280;17.806;2023-07-08T14:13:50;5.82;;;3.25;;
35667;SDS011;22158;59.280;17.806;2023-07-08T14:16:25;6.22;;;2.70;;
35667;SDS011;22158;59.280;17.806;2023-07-08T14:18:54;3.85;;;2.03;;
35667;SDS011;22158;59.280;17.806;2023-07-08T14:21:22;4.03;;;2.53;;
35667;SDS011;22158;59.280;17.806;2023-07-08T14:23:48;3.38;;;2.55;;
35667;SDS011;22158;59.280;17.806;2023-07-08T14:26:13;5.22;;;2.20;;
35667;SDS011;22158;59.280;17.806;2023-07-08T14:28:39;4.55;;;2.00;;
35667;SDS011;22158;59.280;17.806;2023-07-08T14:31:12;2.53;;;2.15;;
35667;SDS011;22158;59.280;17.806;2023-07-08T14:33:39;3.10;;;2.03;;
35667;SDS011;22158;59.280;17.806;2023-07-08T14:36:09;2.40;;;1.65;;
35667;SDS011;22158;59.280;17.806;2023-07-08T14:38:35;3.47;;;2.03;;
35667;SDS011;22158;59.280;17.806;2023-07-08T14:41:00;3.33;;;2.15;;
35667;SDS011;22158;59.280;17.806;2023-07-08T14:43:30;4.40;;;2.65;;
35667;SDS011;22158;59.280;17.806;2023-07-08T14:45:58;3.28;;;2.13;;
35667;SDS011;22158;59.280;17.806;2023-07-08T14:48:30;4.53;;;2.58;;
35667;SDS011;22158;59.280;17.806;2023-07-08T14:50:56;3.07;;;2.20;;
35667;SDS011;22158;59.280;17.806;2023-07-08T14:53:22;3.65;;;2.40;;
35667;SDS011;22158;59.280;17.806;2023-07-08T14:55:51;7.88;;;2.10;;
35667;SDS011;22158;59.280;17.806;2023-07-08T14:58:26;3.47;;;2.55;;
35667;SDS011;22158;59.280;17.806;2023-07-08T15:00:54;3.40;;;2.38;;
35667;SDS011;22158;59.280;17.806;2023-07-08T15:03:22;2.63;;;2.13;;
35667;SDS011;22158;59.280;17.806;2023-07-08T15:05:48;4.60;;;2.25;;
35667;SDS011;22158;59.280;17.806;2023-07-08T15:08:14;3.10;;;2.50;;
35667;SDS011;22158;59.280;17.806;2023-07-08T15:10:42;3.85;;;2.22;;
35667;SDS011;22158;59.280;17.806;2023-07-08T15:13:12;4.22;;;3.22;;
35667;SDS011;22158;59.280;17.806;2023-07-08T15:15:38;3.92;;;2.40;;
35667;SDS011;22158;59.280;17.806;2023-07-08T15:18:15;2.83;;;2.05;;
35667;SDS011;22158;59.280;17.806;2023-07-08T15:20:42;5.95;;;2.05;;
35667;SDS011;22158;59.280;17.806;2023-07-08T15:23:09;4.50;;;2.40;;
35667;SDS011;22158;59.280;17.806;2023-07-08T15:25:35;3.13;;;2.47;;
35667;SDS011;22158;59.280;17.806;2023-07-08T15:28:02;2.97;;;2.17;;
35667;SDS011;22158;59.280;17.806;2023-07-08T15:30:29;3.22;;;2.13;;
35667;SDS011;22158;59.280;17.806;2023-07-08T15:32:55;2.50;;;2.10;;
35667;SDS011;22158;59.280;17.806;2023-07-08T15:35:22;2.40;;;1.80;;
35667;SDS011;22158;59.280;17.806;2023-07-08T15:37:51;3.63;;;2.08;;
35667;SDS011;22158;59.280;17.806;2023-07-08T15:40:18;3.05;;;2.20;;
35667;SDS011;22158;59.280;17.806;2023-07-08T15:42:48;4.33;;;2.20;;
35667;SDS011;22158;59.280;17.806;2023-07-08T15:45:16;3.33;;;2.25;;
35667;SDS011;22158;59.280;17.806;2023-07-08T15:48:16;5.10;;;2.75;;
35667;SDS011;22158;59.280;17.806;2023-07-08T15:50:42;4.57;;;2.00;;
35667;SDS011;22158;59.280;17.806;2023-07-08T15:53:08;2.67;;;1.88;;
35667;SDS011;22158;59.280;17.806;2023-07-08T15:55:37;3.05;;;2.20;;